Time;durP1;ratioP1;P1;durP2;ratioP2;P2;SDS_P1;SDS_P2;PMS_P1;PMS_P2;Temp;Humidity;BMP_temperature;BMP_pressure;BME280_temperature;BME280_humidity;BME280_pressure;Samples;Min_cycle;Max_cycle;Signal;HPM_P1;HPM_P2
2022/01/09 00:01:54;;;;;;;6.73;5.27;;;;;;;0.02;100.00;99548.38;5053480;28;20746;-52
2022/01/09 00:04:20;;;;;;;10.57;5.40;;;;;;;-0.19;99.57;99544.47;5042238;28;20267;-53
2022/01/09 00:06:47;;;;;;;6.87;5.17;;;;;;;-0.04;100.00;99539.66;5050916;28;20232;-53
2022/01/09 00:09:13;;;;;;;9.20;5.90;;;;;;;0.01;99.57;99537.19;5049650;28;20285;-53
2022/01/09 00:11:40;;;;;;;10.03;6.00;;;;;;;0.07;99.67;99547.66;5052704;28;20238;-53
2022/01/09 00:14:06;;;;;;;9.50;5.20;;;;;;;-0.18;98.31;99535.91;5048012;28;20254;-52
2022/01/09 00:16:34;;;;;;;6.40;5.50;;;;;;;-0.04;98.99;99536.22;5058205;28;20227;-52
2022/01/09 00:19:00;;;;;;;6.00;4.87;;;;;;;0.09;100.00;99527.03;5053966;28;20254;-53
2022/01/09 00:21:27;;;;;;;7.47;5.07;;;;;;;0.16;100.00;99523.75;5049582;28;20317;-52
2022/01/09 00:23:54;;;;;;;6.90;5.53;;;;;;;0.18;99.17;99515.22;5054794;28;20252;-52
2022/01/09 00:26:20;;;;;;;5.83;4.53;;;;;;;0.06;98.64;99514.06;5048148;28;20236;-53
2022/01/09 00:28:46;;;;;;;5.93;5.37;;;;;;;0.28;99.71;99503.38;5042631;28;20285;-52
2022/01/09 00:31:12;;;;;;;6.27;5.10;;;;;;;0.03;96.13;99503.69;5042872;28;20232;-53
2022/01/09 00:33:40;;;;;;;5.50;5.00;;;;;;;0.12;97.18;99499.59;5049951;28;21007;-52
2022/01/09 00:36:06;;;;;;;9.33;5.53;;;;;;;0.13;98.06;99496.16;5049288;28;20259;-52
2022/01/09 00:38:33;;;;;;;5.90;4.77;;;;;;;0.12;96.77;99488.41;5060805;28;20248;-52
2022/01/09 00:40:59;;;;;;;5.87;4.63;;;;;;;0.12;95.88;99490.97;5047579;28;20267;-51
2022/01/09 00:43:26;;;;;;;6.43;5.10;;;;;;;0.05;96.17;99486.53;5050415;28;20266;-52
2022/01/09 00:45:53;;;;;;;7.10;4.67;;;;;;;0.02;96.21;99483.88;5043453;28;20294;-52
2022/01/09 00:48:19;;;;;;;9.57;5.20;;;;;;;0.01;96.64;99492.47;5052617;28;20426;-51
2022/01/09 00:50:47;;;;;;;6.50;5.20;;;;;;;0.16;97.00;99475.59;5050707;28;20229;-53
2022/01/09 00:53:13;;;;;;;10.83;5.73;;;;;;;0.19;96.32;99485.09;5053294;28;20658;-53
2022/01/09 00:55:40;;;;;;;5.93;4.63;;;;;;;0.33;96.68;99478.50;5059680;28;20726;-52
2022/01/09 00:58:06;;;;;;;6.27;4.33;;;;;;;0.12;94.67;99483.25;5058995;28;21336;-52
2022/01/09 01:00:35;;;;;;;8.23;4.90;;;;;;;0.24;95.06;99468.00;5042804;28;20246;-52
2022/01/09 01:03:01;;;;;;;9.37;5.40;;;;;;;0.21;96.71;99465.34;5051327;28;20314;-53
2022/01/09 01:05:29;;;;;;;6.90;4.63;;;;;;;0.16;94.21;99470.41;5049740;28;20240;-51
2022/01/09 01:07:57;;;;;;;5.30;4.80;;;;;;;0.11;95.38;99460.88;5052836;28;20236;-50
2022/01/09 01:10:23;;;;;;;7.33;5.73;;;;;;;-0.14;93.64;99455.19;5041925;28;20641;-51
2022/01/09 01:12:50;;;;;;;7.90;4.50;;;;;;;0.10;96.08;99459.97;5051923;28;20243;-53
2022/01/09 01:15:16;;;;;;;7.07;4.63;;;;;;;0.26;95.45;99453.41;5047097;28;20236;-53
2022/01/09 01:17:42;;;;;;;4.60;4.27;;;;;;;0.44;97.96;99451.19;5056419;28;20239;-51
2022/01/09 01:20:10;;;;;;;5.03;4.53;;;;;;;0.14;94.13;99455.72;5054830;28;20973;-52
2022/01/09 01:22:36;;;;;;;5.07;4.53;;;;;;;0.05;92.94;99442.66;5049265;28;20315;-53
2022/01/09 01:25:06;;;;;;;5.40;4.90;;;;;;;-0.01;96.39;99456.31;5058141;28;20231;-53
2022/01/09 01:27:32;;;;;;;5.67;5.07;;;;;;;-0.15;95.66;99440.53;5049953;28;20238;-52
2022/01/09 01:29:58;;;;;;;7.33;5.47;;;;;;;-0.13;95.30;99440.59;5043390;28;20255;-52
2022/01/09 01:32:25;;;;;;;5.70;4.57;;;;;;;-0.04;97.62;99436.47;5056623;28;20700;-52
2022/01/09 01:34:52;;;;;;;7.63;5.87;;;;;;;0.02;97.00;99434.88;5048003;28;20942;-52
2022/01/09 01:37:18;;;;;;;7.67;5.47;;;;;;;0.03;95.29;99434.00;5050836;28;20352;-53
2022/01/09 01:39:44;;;;;;;9.47;5.50;;;;;;;-0.02;94.53;99432.22;5058076;28;20667;-53
2022/01/09 01:42:12;;;;;;;6.77;5.37;;;;;;;0.06;96.98;99422.03;5053213;28;20254;-52
2022/01/09 01:44:40;;;;;;;7.23;6.00;;;;;;;0.07;96.38;99422.91;5037733;28;21001;-53
2022/01/09 01:47:06;;;;;;;5.40;4.87;;;;;;;0.28;98.32;99413.03;5046164;28;20724;-52
2022/01/09 01:49:33;;;;;;;10.43;6.17;;;;;;;0.15;96.65;99417.06;5054947;28;21889;-52
2022/01/09 01:51:59;;;;;;;6.97;5.40;;;;;;;-0.20;94.97;99403.47;5044054;28;20293;-53
2022/01/09 01:54:27;;;;;;;9.00;5.30;;;;;;;-0.09;96.50;99401.97;5036661;28;20233;-51
2022/01/09 01:56:53;;;;;;;8.40;5.67;;;;;;;-0.02;98.25;99406.41;5035034;28;20260;-52
2022/01/09 01:59:21;;;;;;;8.43;5.57;;;;;;;-0.30;95.36;99393.81;5056865;28;20231;-52
2022/01/09 02:01:47;;;;;;;6.77;4.60;;;;;;;0.10;98.96;99394.59;5054220;28;20226;-52
2022/01/09 02:04:14;;;;;;;6.10;5.50;;;;;;;0.20;98.99;99384.47;5039526;28;20867;-52
2022/01/09 02:06:41;;;;;;;6.13;5.57;;;;;;;0.10;95.52;99384.25;5046088;28;20835;-52
2022/01/09 02:09:07;;;;;;;10.37;5.57;;;;;;;-0.02;95.44;99378.03;5048412;28;20252;-52
2022/01/09 02:11:34;;;;;;;6.37;5.40;;;;;;;-0.06;96.36;99386.56;5052270;28;20238;-51
2022/01/09 02:14:01;;;;;;;7.43;5.43;;;;;;;-0.11;97.32;99374.41;5041391;28;20274;-53
2022/01/09 02:16:29;;;;;;;8.10;5.57;;;;;;;-0.01;96.12;99377.19;5045452;28;20331;-50
2022/01/09 02:18:57;;;;;;;7.10;4.93;;;;;;;-0.06;94.20;99377.97;5061793;28;20716;-51
2022/01/09 02:21:26;;;;;;;8.13;4.80;;;;;;;-0.18;95.36;99370.81;5051701;28;20300;-52
2022/01/09 02:23:52;;;;;;;6.63;5.73;;;;;;;-0.24;95.32;99368.16;5043104;28;20231;-51
2022/01/09 02:26:20;;;;;;;10.10;5.97;;;;;;;-0.02;96.86;99367.72;5043608;28;20940;-52
2022/01/09 02:28:46;;;;;;;9.13;4.93;;;;;;;0.32;97.70;99358.03;5042882;28;20312;-53
2022/01/09 02:31:13;;;;;;;9.83;5.00;;;;;;;0.13;96.14;99343.91;5045444;28;20238;-50
2022/01/09 02:33:39;;;;;;;5.77;4.90;;;;;;;0.05;95.77;99347.19;5061405;28;20243;-52
2022/01/09 02:36:06;;;;;;;6.17;5.30;;;;;;;0.03;96.00;99343.72;5049890;28;20250;-52
2022/01/09 02:38:33;;;;;;;6.30;5.70;;;;;;;-0.18;93.81;99349.31;5060335;28;20230;-52
2022/01/09 02:41:00;;;;;;;7.53;5.87;;;;;;;-0.35;95.32;99337.00;5059202;28;20262;-51
2022/01/09 02:43:26;;;;;;;7.70;6.63;;;;;;;0.05;98.01;99339.47;5064534;28;20254;-58
2022/01/09 02:46:01;;;;;;;9.53;6.33;;;;;;;-0.07;94.20;99330.66;5061429;28;20234;-50
2022/01/09 02:48:32;;;;;;;9.57;6.07;;;;;;;-0.32;95.91;99325.84;5054505;28;20734;-51
2022/01/09 02:51:03;;;;;;;8.93;6.00;;;;;;;-0.31;96.20;99328.47;5064221;28;20237;-50
2022/01/09 02:53:34;;;;;;;8.13;6.43;;;;;;;-0.25;96.72;99322.53;5051598;28;20586;-51
2022/01/09 02:56:02;;;;;;;8.53;6.17;;;;;;;0.01;95.23;99319.63;5061880;28;20903;-52
2022/01/09 02:58:28;;;;;;;6.27;5.37;;;;;;;0.38;98.81;99311.66;5052260;28;20272;-52
2022/01/09 03:00:55;;;;;;;9.40;5.90;;;;;;;0.04;93.45;99319.66;5049764;28;20340;-52
2022/01/09 03:03:21;;;;;;;6.17;5.17;;;;;;;-0.08;94.15;99320.28;5047543;28;20969;-52
2022/01/09 03:05:47;;;;;;;8.63;6.97;;;;;;;-0.11;95.76;99300.47;5053993;28;20267;-50
2022/01/09 03:08:15;;;;;;;8.80;6.80;;;;;;;-0.23;96.53;99301.97;5048106;28;20294;-51
2022/01/09 03:10:41;;;;;;;8.03;6.37;;;;;;;0.03;97.21;99302.44;5055165;28;20934;-50
2022/01/09 03:13:09;;;;;;;9.17;6.13;;;;;;;-0.08;94.66;99297.06;5058674;28;20233;-53
2022/01/09 03:15:35;;;;;;;9.47;7.00;;;;;;;0.06;96.30;99294.75;5053819;28;20295;-51
2022/01/09 03:18:02;;;;;;;10.30;6.37;;;;;;;0.02;94.36;99287.81;5050773;28;20249;-54
2022/01/09 03:20:29;;;;;;;8.33;6.13;;;;;;;-0.09;93.43;99292.78;5055160;28;20235;-52
2022/01/09 03:22:56;;;;;;;10.50;5.40;;;;;;;-0.27;95.07;99281.28;5049796;28;20224;-52
2022/01/09 03:25:23;;;;;;;8.37;5.53;;;;;;;-0.11;95.97;99279.81;5055313;28;20278;-51
2022/01/09 03:27:49;;;;;;;8.80;6.00;;;;;;;0.13;94.63;99281.09;5046033;28;20775;-51
2022/01/09 03:30:19;;;;;;;9.67;7.03;;;;;;;-0.12;93.95;99274.66;5057432;28;20230;-51
2022/01/09 03:32:45;;;;;;;11.40;6.13;;;;;;;-0.10;97.64;99270.41;5060601;28;20272;-56
2022/01/09 03:35:14;;;;;;;8.90;6.57;;;;;;;-0.34;96.16;99270.81;5064125;28;20279;-51
2022/01/09 03:37:41;;;;;;;11.00;6.53;;;;;;;-0.35;96.71;99274.22;5052492;28;20260;-51
2022/01/09 03:40:10;;;;;;;7.60;5.47;;;;;;;-0.34;95.94;99274.25;5039073;28;20307;-51
2022/01/09 03:42:36;;;;;;;6.33;5.50;;;;;;;-0.38;97.05;99274.19;5055067;28;20306;-52
2022/01/09 03:45:03;;;;;;;9.53;6.07;;;;;;;-0.35;96.88;99271.63;5043584;28;20246;-52
2022/01/09 03:47:31;;;;;;;7.67;5.33;;;;;;;-0.18;99.12;99266.78;5065343;28;20257;-52
2022/01/09 03:49:58;;;;;;;7.60;5.87;;;;;;;-0.23;96.64;99265.84;5064567;28;20222;-52
2022/01/09 03:52:27;;;;;;;8.83;5.47;;;;;;;-0.02;96.22;99261.94;5058333;28;20268;-51
2022/01/09 03:54:54;;;;;;;8.50;6.33;;;;;;;-0.22;94.87;99268.44;5062908;28;20231;-52
2022/01/09 03:57:20;;;;;;;7.23;6.07;;;;;;;-0.28;96.10;99268.31;5051192;28;20638;-52
2022/01/09 03:59:47;;;;;;;9.23;5.73;;;;;;;-0.11;95.22;99266.94;5052921;28;20255;-52
2022/01/09 04:02:13;;;;;;;8.23;5.50;;;;;;;-0.05;95.21;99264.47;5059412;28;20909;-53
2022/01/09 04:04:40;;;;;;;9.60;5.57;;;;;;;-0.02;97.19;99269.69;5055638;28;20260;-53
2022/01/09 04:07:07;;;;;;;9.67;5.70;;;;;;;0.22;97.77;99258.06;5054831;28;20323;-52
2022/01/09 04:09:39;;;;;;;6.43;5.77;;;;;;;0.09;94.50;99249.22;5062200;28;20304;-51
2022/01/09 04:12:14;;;;;;;11.57;6.17;;;;;;;0.19;92.60;99260.56;5060902;28;20240;-52
2022/01/09 04:14:40;;;;;;;6.80;5.23;;;;;;;0.40;94.75;99255.75;5054599;28;20250;-51
2022/01/09 04:17:11;;;;;;;5.53;4.33;;;;;;;0.43;97.59;99258.41;5063808;28;20247;-51
2022/01/09 04:19:37;;;;;;;12.27;5.60;;;;;;;0.05;93.41;99254.31;5041466;28;20257;-49
2022/01/09 04:22:05;;;;;;;7.63;5.30;;;;;;;0.00;94.30;99264.56;5059239;28;20891;-51
2022/01/09 04:24:31;;;;;;;7.87;5.43;;;;;;;0.27;97.73;99258.13;5056892;28;20775;-52
2022/01/09 04:26:58;;;;;;;10.47;5.63;;;;;;;0.10;94.06;99253.53;5041978;28;20260;-52
2022/01/09 04:29:24;;;;;;;9.17;5.43;;;;;;;0.02;92.65;99251.69;5055084;28;20237;-50
2022/01/09 04:31:50;;;;;;;10.20;5.20;;;;;;;0.31;94.41;99236.66;5056682;28;20653;-51
2022/01/09 04:34:17;;;;;;;11.07;5.40;;;;;;;0.22;94.70;99227.09;5042386;28;20710;-55
2022/01/09 04:36:43;;;;;;;6.93;4.87;;;;;;;0.12;91.89;99220.91;5037684;28;20267;-51
2022/01/09 04:39:11;;;;;;;8.27;5.20;;;;;;;0.02;93.02;99218.16;5049687;28;20293;-51
2022/01/09 04:41:37;;;;;;;7.00;4.70;;;;;;;0.19;94.10;99214.13;5060378;28;20251;-51
2022/01/09 04:44:04;;;;;;;6.43;5.03;;;;;;;0.09;93.00;99214.81;5064397;28;20231;-50
2022/01/09 04:46:39;;;;;;;9.50;5.17;;;;;;;0.39;94.36;99217.03;5059923;28;20240;-52
2022/01/09 04:49:05;;;;;;;6.07;4.20;;;;;;;0.67;95.68;99210.56;5051816;28;20242;-50
2022/01/09 04:51:32;;;;;;;4.57;4.03;;;;;;;0.28;91.43;99215.97;5042198;28;20236;-53
2022/01/09 04:53:58;;;;;;;9.83;5.50;;;;;;;0.36;93.59;99209.22;5046089;28;20247;-52
2022/01/09 04:56:27;;;;;;;6.40;4.47;;;;;;;0.33;90.80;99210.03;5059673;28;20289;-51
2022/01/09 04:58:53;;;;;;;6.50;4.83;;;;;;;0.34;91.47;99204.03;5047657;28;20237;-50
2022/01/09 05:01:19;;;;;;;4.60;3.83;;;;;;;0.38;91.82;99208.38;5036602;28;20271;-50
2022/01/09 05:03:46;;;;;;;5.33;4.20;;;;;;;0.47;92.95;99203.38;5040280;28;20261;-51
2022/01/09 05:06:12;;;;;;;7.20;5.27;;;;;;;0.95;93.55;99210.06;5058092;28;20254;-51
2022/01/09 05:08:38;;;;;;;6.47;4.13;;;;;;;0.70;93.11;99205.41;5041997;28;20263;-53
2022/01/09 05:11:04;;;;;;;7.27;4.30;;;;;;;1.01;91.07;99210.97;5047893;28;20259;-52
2022/01/09 05:13:32;;;;;;;8.97;5.17;;;;;;;0.80;89.12;99216.72;5058127;28;20328;-52
2022/01/09 05:16:00;;;;;;;5.87;4.33;;;;;;;0.58;89.43;99221.59;5048131;28;20280;-51
2022/01/09 05:18:26;;;;;;;5.23;3.73;;;;;;;0.65;88.56;99231.19;5054193;28;20290;-52
2022/01/09 05:20:52;;;;;;;4.97;3.90;;;;;;;0.19;89.04;99222.72;5065029;28;20413;-52
2022/01/09 05:23:19;;;;;;;10.20;4.00;;;;;;;0.15;90.82;99217.50;5059552;28;20308;-51
2022/01/09 05:25:45;;;;;;;9.97;4.53;;;;;;;0.30;90.34;99217.75;5053406;28;20253;-53
2022/01/09 05:28:11;;;;;;;6.67;4.57;;;;;;;0.64;94.04;99213.09;5063583;28;20304;-52
2022/01/09 05:30:39;;;;;;;4.03;3.60;;;;;;;0.27;89.00;99215.09;5062758;28;20247;-50
2022/01/09 05:33:05;;;;;;;7.27;5.07;;;;;;;0.66;91.53;99208.78;5057067;28;20336;-51
2022/01/09 05:35:32;;;;;;;7.17;4.13;;;;;;;0.53;89.23;99212.03;5061218;28;20234;-52
2022/01/09 05:37:58;;;;;;;4.47;3.63;;;;;;;0.46;90.04;99205.94;5059732;28;20225;-49
2022/01/09 05:40:24;;;;;;;6.20;3.37;;;;;;;0.61;93.29;99210.47;5060847;28;20256;-53
2022/01/09 05:42:51;;;;;;;4.60;3.83;;;;;;;0.49;90.94;99213.72;5059651;28;20763;-54
2022/01/09 05:45:18;;;;;;;5.07;4.23;;;;;;;0.23;89.51;99221.94;5048337;28;20235;-53
2022/01/09 05:47:46;;;;;;;7.93;4.27;;;;;;;0.37;88.93;99214.41;5047604;28;20769;-51
2022/01/09 05:50:13;;;;;;;5.87;4.13;;;;;;;0.42;91.28;99209.31;5058564;28;20247;-52
2022/01/09 05:52:39;;;;;;;4.33;3.93;;;;;;;0.75;90.36;99214.09;5066708;28;20258;-53
2022/01/09 05:55:06;;;;;;;6.37;3.93;;;;;;;0.28;88.99;99210.81;5063423;28;20254;-53
2022/01/09 05:57:33;;;;;;;4.40;3.77;;;;;;;0.07;88.98;99207.06;5055769;28;20775;-51
2022/01/09 06:00:00;;;;;;;3.87;3.03;;;;;;;0.55;91.23;99210.38;5056968;28;20230;-52
2022/01/09 06:02:26;;;;;;;5.20;4.20;;;;;;;0.46;91.65;99211.97;5039610;28;20716;-52
2022/01/09 06:04:54;;;;;;;4.73;3.53;;;;;;;0.19;89.77;99217.56;5049452;28;20309;-49
2022/01/09 06:07:20;;;;;;;4.90;3.70;;;;;;;0.42;93.42;99219.63;5047067;28;20710;-52
2022/01/09 06:09:46;;;;;;;3.90;3.03;;;;;;;0.55;93.38;99210.38;5058251;28;20266;-52
2022/01/09 06:12:12;;;;;;;5.93;3.10;;;;;;;0.36;90.63;99217.84;5060837;28;20259;-51
2022/01/09 06:14:39;;;;;;;5.67;4.30;;;;;;;0.60;90.79;99214.75;5063023;28;20256;-52
2022/01/09 06:17:05;;;;;;;3.93;3.33;;;;;;;0.48;88.11;99215.44;5058107;28;20237;-50
2022/01/09 06:19:32;;;;;;;5.30;4.23;;;;;;;0.35;91.41;99205.78;5067982;28;20281;-51
2022/01/09 06:21:59;;;;;;;5.20;3.90;;;;;;;0.10;90.57;99201.94;5060075;28;20229;-53
2022/01/09 06:24:26;;;;;;;7.43;4.07;;;;;;;0.12;90.43;99209.72;5060589;28;20232;-51
2022/01/09 06:26:52;;;;;;;4.80;3.53;;;;;;;0.20;90.35;99208.13;5057103;28;20266;-54
2022/01/09 06:29:19;;;;;;;5.90;3.37;;;;;;;0.28;90.97;99201.38;5050256;28;20262;-52
2022/01/09 06:31:45;;;;;;;5.23;4.20;;;;;;;0.12;89.79;99209.72;5053534;28;20232;-51
2022/01/09 06:34:13;;;;;;;5.33;3.47;;;;;;;0.32;91.17;99215.19;5043425;28;20808;-52
2022/01/09 06:36:40;;;;;;;7.47;4.03;;;;;;;0.31;91.06;99209.16;5038815;28;20711;-50
2022/01/09 06:39:07;;;;;;;8.70;4.10;;;;;;;0.27;91.37;99215.09;5049139;28;20718;-52
2022/01/09 06:41:34;;;;;;;5.33;3.77;;;;;;;0.24;89.67;99212.47;5051599;28;20820;-52
2022/01/09 06:44:00;;;;;;;4.73;4.13;;;;;;;0.35;90.75;99218.69;5057173;28;20248;-51
2022/01/09 06:46:27;;;;;;;4.40;4.00;;;;;;;0.32;91.51;99216.06;5051035;28;20258;-51
2022/01/09 06:48:53;;;;;;;5.17;4.43;;;;;;;0.39;90.84;99210.16;5052957;28;20738;-51
2022/01/09 06:51:19;;;;;;;6.93;3.97;;;;;;;0.54;91.55;99209.50;5054731;28;20250;-52
2022/01/09 06:53:46;;;;;;;6.57;3.97;;;;;;;0.32;88.15;99218.66;5060304;28;20232;-51
2022/01/09 06:56:13;;;;;;;4.37;3.97;;;;;;;0.29;89.55;99212.56;5043645;28;20239;-52
2022/01/09 06:58:40;;;;;;;4.67;4.23;;;;;;;0.26;90.35;99203.06;5054034;28;20618;-52
2022/01/09 07:01:07;;;;;;;5.13;4.00;;;;;;;0.27;90.66;99209.94;5050608;28;20295;-52
2022/01/09 07:03:33;;;;;;;5.43;3.90;;;;;;;0.29;89.17;99205.69;5039596;28;20239;-53
2022/01/09 07:06:00;;;;;;;6.47;3.63;;;;;;;0.24;89.00;99197.00;5048734;28;20273;-52
2022/01/09 07:08:28;;;;;;;3.27;3.00;;;;;;;0.31;88.69;99198.81;5054195;28;20289;-53
2022/01/09 07:10:55;;;;;;;5.87;4.23;;;;;;;0.22;88.71;99193.53;5059446;28;20302;-52
2022/01/09 07:13:22;;;;;;;5.57;3.87;;;;;;;0.27;88.67;99204.78;5052082;28;20293;-53
2022/01/09 07:15:49;;;;;;;5.87;4.60;;;;;;;0.46;89.91;99196.47;5050025;28;20759;-52
2022/01/09 07:18:15;;;;;;;7.90;4.27;;;;;;;0.48;89.55;99204.25;5052256;28;20234;-53
2022/01/09 07:20:41;;;;;;;5.43;4.10;;;;;;;0.36;87.82;99194.59;5060398;28;20309;-50
2022/01/09 07:23:08;;;;;;;5.47;4.17;;;;;;;0.32;88.23;99194.56;5055801;28;20241;-55
2022/01/09 07:25:34;;;;;;;4.83;3.67;;;;;;;0.38;89.94;99198.06;5050120;28;20876;-52
2022/01/09 07:28:02;;;;;;;5.50;4.37;;;;;;;0.49;89.71;99205.97;5045630;28;20850;-52
2022/01/09 07:30:29;;;;;;;5.23;4.23;;;;;;;0.50;87.80;99206.88;5052557;28;20722;-52
2022/01/09 07:32:56;;;;;;;5.00;3.80;;;;;;;0.59;87.84;99204.38;5052748;28;20266;-52
2022/01/09 07:35:22;;;;;;;4.97;3.67;;;;;;;0.38;88.09;99216.13;5052630;28;20318;-50
2022/01/09 07:37:49;;;;;;;6.83;4.30;;;;;;;0.41;88.18;99203.28;5058542;28;20261;-51
2022/01/09 07:40:16;;;;;;;6.90;4.30;;;;;;;0.61;90.36;99202.72;5048815;28;20233;-52
2022/01/09 07:42:42;;;;;;;6.37;4.17;;;;;;;0.47;89.22;99211.13;5059867;28;20281;-52
2022/01/09 07:45:09;;;;;;;5.77;3.63;;;;;;;0.44;87.73;99213.66;5044369;28;21482;-51
2022/01/09 07:47:37;;;;;;;9.73;4.17;;;;;;;0.45;88.63;99215.38;5052746;28;20825;-53
2022/01/09 07:50:05;;;;;;;5.90;4.73;;;;;;;0.86;87.08;99217.69;5058738;28;20257;-51
2022/01/09 07:52:34;;;;;;;4.77;4.13;;;;;;;0.71;85.88;99212.31;5041423;28;20723;-50
2022/01/09 07:55:00;;;;;;;5.07;4.00;;;;;;;0.53;87.53;99222.38;5059845;28;20244;-49
2022/01/09 07:57:27;;;;;;;8.97;5.00;;;;;;;0.56;87.09;99222.41;5050037;28;20255;-53
2022/01/09 07:59:53;;;;;;;9.93;4.47;;;;;;;0.85;87.46;99220.25;5046114;28;20283;-52
2022/01/09 08:02:19;;;;;;;7.00;5.60;;;;;;;0.68;86.19;99217.44;5041839;28;20689;-51
2022/01/09 08:04:47;;;;;;;5.50;4.47;;;;;;;0.96;88.27;99218.69;5058675;28;20287;-51
2022/01/09 08:07:13;;;;;;;6.63;4.63;;;;;;;0.82;85.38;99221.09;5041275;28;20363;-51
2022/01/09 08:09:42;;;;;;;9.53;4.80;;;;;;;0.73;86.73;99220.94;5049688;28;20259;-52
2022/01/09 08:12:10;;;;;;;7.80;4.50;;;;;;;0.80;87.30;99227.94;5057054;28;20236;-51
2022/01/09 08:14:37;;;;;;;8.07;4.13;;;;;;;0.83;88.33;99217.66;5035823;28;20251;-50
2022/01/09 08:17:03;;;;;;;5.90;3.90;;;;;;;0.73;86.41;99215.78;5059520;28;20224;-52
2022/01/09 08:19:31;;;;;;;8.80;4.47;;;;;;;0.75;86.41;99216.69;5062743;28;20253;-52
2022/01/09 08:21:59;;;;;;;8.97;5.10;;;;;;;0.82;86.39;99221.09;5061534;28;20267;-53
2022/01/09 08:24:25;;;;;;;6.10;4.83;;;;;;;0.72;87.39;99214.06;5061937;28;20256;-53
2022/01/09 08:26:51;;;;;;;7.30;5.10;;;;;;;0.93;87.19;99218.63;5062845;28;20253;-52
2022/01/09 08:29:18;;;;;;;9.83;5.00;;;;;;;0.86;87.76;99222.00;5062443;28;20242;-53
2022/01/09 08:31:44;;;;;;;7.20;5.10;;;;;;;0.90;85.34;99219.47;5062710;28;20246;-54
2022/01/09 08:34:10;;;;;;;7.90;5.43;;;;;;;0.68;84.46;99213.16;5064690;28;20238;-52
2022/01/09 08:36:38;;;;;;;6.40;4.97;;;;;;;0.70;87.09;99220.91;5054909;28;20369;-53
2022/01/09 08:39:06;;;;;;;8.33;4.80;;;;;;;0.78;86.03;99214.16;5064291;28;20267;-52
2022/01/09 08:41:33;;;;;;;7.50;5.00;;;;;;;0.93;84.24;99210.91;5046226;28;20250;-53
2022/01/09 08:44:00;;;;;;;6.30;4.70;;;;;;;0.94;85.33;99215.19;5048421;28;20727;-52
2022/01/09 08:46:27;;;;;;;9.13;4.70;;;;;;;1.07;85.34;99221.41;5033180;28;20325;-53
2022/01/09 08:48:53;;;;;;;11.00;5.43;;;;;;;1.23;84.93;99225.94;5044058;28;20817;-53
2022/01/09 08:51:19;;;;;;;9.83;5.27;;;;;;;1.18;83.49;99225.00;5050687;28;20321;-52
2022/01/09 08:53:50;;;;;;;6.30;5.00;;;;;;;1.06;83.53;99219.69;5042380;28;20294;-52
2022/01/09 08:56:18;;;;;;;6.03;4.17;;;;;;;1.21;85.68;99219.00;5063505;28;20246;-53
2022/01/09 08:58:45;;;;;;;7.93;5.37;;;;;;;1.24;83.61;99219.91;5056460;28;20251;-53
2022/01/09 09:01:11;;;;;;;5.87;4.40;;;;;;;1.25;85.26;99221.63;5062477;28;20238;-53
2022/01/09 09:03:40;;;;;;;7.27;5.07;;;;;;;1.52;86.38;99220.22;5053455;28;20254;-51
2022/01/09 09:06:07;;;;;;;7.30;4.70;;;;;;;1.22;81.68;99229.34;5058515;28;20237;-53
2022/01/09 09:08:34;;;;;;;5.43;4.23;;;;;;;1.04;83.35;99224.81;5048694;28;20245;-54
2022/01/09 09:11:00;;;;;;;6.73;4.13;;;;;;;1.14;83.65;99225.81;5046278;28;20273;-52
2022/01/09 09:13:28;;;;;;;6.47;4.90;;;;;;;1.18;83.60;99238.78;5050545;28;20321;-53
2022/01/09 09:15:54;;;;;;;6.23;4.37;;;;;;;1.19;83.10;99234.47;5046025;28;20739;-53
2022/01/09 09:18:20;;;;;;;5.57;5.07;;;;;;;1.22;81.91;99237.09;5060748;28;20238;-54
2022/01/09 09:20:47;;;;;;;10.87;5.30;;;;;;;1.48;85.30;99231.38;5056309;28;20253;-52
2022/01/09 09:23:13;;;;;;;6.87;4.23;;;;;;;1.80;84.51;99242.06;5051519;28;20302;-54
2022/01/09 09:25:39;;;;;;;8.97;4.40;;;;;;;1.57;83.69;99239.22;5062852;28;20789;-53
2022/01/09 09:28:05;;;;;;;9.40;4.53;;;;;;;1.46;80.81;99235.66;5062314;28;20242;-53
2022/01/09 09:30:33;;;;;;;5.57;4.77;;;;;;;1.42;83.35;99235.63;5057126;28;20258;-52
2022/01/09 09:32:59;;;;;;;5.60;4.47;;;;;;;1.59;81.84;99232.34;5051720;28;20249;-51
2022/01/09 09:35:26;;;;;;;5.73;4.93;;;;;;;1.42;81.06;99238.19;5051812;28;20257;-53
2022/01/09 09:37:52;;;;;;;5.53;4.53;;;;;;;1.45;83.58;99244.28;5044226;28;20250;-52
2022/01/09 09:40:18;;;;;;;4.50;3.90;;;;;;;1.55;81.81;99248.69;5047799;28;20346;-52
2022/01/09 09:42:45;;;;;;;4.83;4.20;;;;;;;1.47;82.17;99252.91;5061222;28;20261;-53
2022/01/09 09:45:12;;;;;;;4.87;3.77;;;;;;;1.54;81.63;99252.13;5052204;28;23082;-53
2022/01/09 09:47:41;;;;;;;5.13;4.70;;;;;;;1.69;83.26;99254.03;5048711;28;20262;-52
2022/01/09 09:50:10;;;;;;;6.27;4.47;;;;;;;1.66;83.37;99262.63;5061945;28;20873;-52
2022/01/09 09:52:36;;;;;;;7.77;4.50;;;;;;;1.49;82.02;99256.38;5059493;28;20262;-53
2022/01/09 09:55:04;;;;;;;5.57;3.67;;;;;;;1.56;82.88;99250.44;5055690;28;20251;-51
2022/01/09 09:57:30;;;;;;;7.60;5.13;;;;;;;1.71;81.90;99252.31;5056019;28;20326;-53
2022/01/09 10:00:01;;;;;;;7.00;4.60;;;;;;;1.67;82.74;99243.66;5050518;28;20268;-54
2022/01/09 10:02:41;;;;;;;5.97;4.07;;;;;;;1.78;82.56;99244.63;5057655;28;20734;-53
2022/01/09 10:05:09;;;;;;;7.73;4.80;;;;;;;1.66;82.51;99249.69;5061900;28;20234;-53
2022/01/09 10:07:35;;;;;;;5.67;3.87;;;;;;;1.77;80.71;99258.41;5061180;28;20281;-53
2022/01/09 10:10:04;;;;;;;5.27;4.63;;;;;;;1.77;82.78;99248.06;5068245;28;20237;-53
2022/01/09 10:12:32;;;;;;;7.00;4.47;;;;;;;1.85;81.23;99251.59;5065669;28;20258;-55
2022/01/09 10:15:00;;;;;;;5.60;3.80;;;;;;;1.69;80.94;99259.19;5054768;28;20233;-51
2022/01/09 10:17:27;;;;;;;6.70;4.43;;;;;;;1.90;82.22;99269.78;5055525;28;20235;-53
2022/01/09 10:19:56;;;;;;;4.97;3.90;;;;;;;1.74;81.22;99253.22;5062715;28;20297;-51
2022/01/09 10:22:36;;;;;;;5.60;4.07;;;;;;;1.85;80.76;99251.59;5059821;28;20238;-54
2022/01/09 10:25:21;;;;;;;5.60;4.73;;;;;;;1.83;80.57;99258.50;5059962;28;20241;-53
2022/01/09 10:27:48;;;;;;;6.13;3.67;;;;;;;1.86;80.53;99262.81;5054811;28;20250;-51
2022/01/09 10:30:15;;;;;;;4.97;4.20;;;;;;;1.90;82.63;99259.41;5060006;28;20462;-55
2022/01/09 10:32:42;;;;;;;3.80;3.13;;;;;;;2.07;85.02;99263.03;5067725;28;20249;-53
2022/01/09 10:35:13;;;;;;;6.17;4.30;;;;;;;2.12;82.80;99263.06;5061520;28;20262;-53
2022/01/09 10:37:41;;;;;;;5.63;3.63;;;;;;;2.11;81.48;99258.75;5055620;28;20313;-51
2022/01/09 10:40:11;;;;;;;8.23;5.03;;;;;;;2.13;80.94;99257.03;5059190;28;20719;-54
2022/01/09 10:42:38;;;;;;;6.20;4.17;;;;;;;2.02;80.54;99258.66;5051663;28;20262;-53
2022/01/09 10:45:19;;;;;;;6.20;4.33;;;;;;;2.23;83.93;99258.84;5052638;28;20268;-53
2022/01/09 10:47:45;;;;;;;5.60;4.17;;;;;;;2.07;81.91;99256.97;5043120;28;20844;-54
2022/01/09 10:50:25;;;;;;;5.33;3.73;;;;;;;2.21;83.64;99254.50;5057834;28;20780;-54
2022/01/09 10:52:52;;;;;;;5.70;4.33;;;;;;;2.08;82.44;99250.97;5044176;28;20246;-53
2022/01/09 10:55:18;;;;;;;5.43;4.07;;;;;;;2.13;82.18;99262.22;5047632;28;20308;-53
2022/01/09 10:57:45;;;;;;;6.27;4.67;;;;;;;2.33;80.96;99264.97;5043441;28;20233;-53
2022/01/09 11:00:14;;;;;;;3.97;3.57;;;;;;;2.23;81.38;99264.03;5040431;28;20235;-53
2022/01/09 11:02:40;;;;;;;6.13;4.47;;;;;;;2.32;80.08;99264.13;5054284;28;20281;-54
2022/01/09 11:05:07;;;;;;;4.60;3.80;;;;;;;2.37;81.22;99267.59;5053724;28;20292;-53
2022/01/09 11:07:35;;;;;;;4.47;3.43;;;;;;;2.43;80.22;99269.38;5047484;28;20261;-52
2022/01/09 11:10:02;;;;;;;4.37;3.97;;;;;;;2.31;81.45;99266.69;5046291;28;20262;-51
2022/01/09 11:12:34;;;;;;;5.50;4.47;;;;;;;2.27;81.45;99276.16;5044905;28;20229;-53
2022/01/09 11:15:01;;;;;;;7.83;4.33;;;;;;;2.58;80.97;99279.84;5059201;28;20268;-51
2022/01/09 11:17:28;;;;;;;4.20;3.80;;;;;;;2.51;81.35;99279.81;5041644;28;20800;-51
2022/01/09 11:19:55;;;;;;;10.00;4.57;;;;;;;2.42;80.98;99274.53;5042334;28;20269;-51
2022/01/09 11:22:22;;;;;;;5.37;3.87;;;;;;;2.35;80.26;99277.09;5057059;28;20284;-51
2022/01/09 11:25:14;;;;;;;5.20;4.27;;;;;;;2.52;81.31;99281.53;5051682;28;20314;-54
2022/01/09 11:27:50;;;;;;;3.43;3.13;;;;;;;2.56;81.41;99283.28;5058820;28;20236;-52
2022/01/09 11:30:20;;;;;;;4.47;4.00;;;;;;;2.58;80.74;99286.75;5058044;28;20250;-53
2022/01/09 11:32:56;;;;;;;7.77;4.23;;;;;;;2.54;81.63;99287.59;5044795;28;20238;-53
2022/01/09 11:35:32;;;;;;;6.90;4.53;;;;;;;2.66;80.66;99285.09;5060874;28;20318;-53
2022/01/09 11:38:09;;;;;;;6.53;4.20;;;;;;;2.60;81.57;99288.53;5044463;28;20262;-52
2022/01/09 11:40:38;;;;;;;5.00;3.30;;;;;;;2.58;80.29;99292.81;5041626;28;20249;-52